Time;durP1;ratioP1;P1;durP2;ratioP2;P2;SDS_P1;SDS_P2;PMS_P1;PMS_P2;Temp;Humidity;BMP_temperature;BMP_pressure;BME280_temperature;BME280_humidity;BME280_pressure;Samples;Min_cycle;Max_cycle;Signal;HPM_P1;HPM_P2
2023/01/05 00:00:53;;;;;;;4.82;2.50;;;;;;;;;;5051981;28;20115;-37
2023/01/05 00:03:19;;;;;;;6.05;2.85;;;;;;;;;;5052890;28;20020;-41
2023/01/05 00:05:45;;;;;;;8.13;2.65;;;;;;;;;;5052851;28;20424;-38
2023/01/05 00:08:12;;;;;;;7.38;2.60;;;;;;;;;;5052799;28;20021;-38
2023/01/05 00:24:25;;;;;;;6.53;2.60;;;;;;;;;;5052666;28;20035;-37
2023/01/05 00:26:51;;;;;;;7.45;3.83;;;;;;;;;;5052449;28;20139;-37
2023/01/05 00:29:17;;;;;;;14.35;3.70;;;;;;;;;;5054924;28;20469;-37
2023/01/05 00:31:43;;;;;;;5.80;3.22;;;;;;;;;;5058880;28;20028;-37
2023/01/05 00:34:09;;;;;;;6.13;3.10;;;;;;;;;;5052599;28;20135;-38
2023/01/05 00:36:35;;;;;;;8.02;3.85;;;;;;;;;;5059619;28;20028;-39
2023/01/05 00:39:01;;;;;;;4.97;2.75;;;;;;;;;;5059861;28;20083;-37
2023/01/05 00:41:27;;;;;;;7.78;2.85;;;;;;;;;;5060210;28;20036;-41
2023/01/05 00:43:54;;;;;;;10.23;2.85;;;;;;;;;;5060493;28;20107;-41
2023/01/05 00:46:20;;;;;;;5.55;2.85;;;;;;;;;;5056732;28;20039;-40
2023/01/05 00:48:46;;;;;;;7.53;3.13;;;;;;;;;;5059405;28;20477;-41
2023/01/05 00:51:12;;;;;;;4.68;2.65;;;;;;;;;;5058383;28;20017;-40
2023/01/05 00:53:38;;;;;;;9.00;4.20;;;;;;;;;;5060008;28;20036;-40
2023/01/05 00:56:04;;;;;;;6.97;2.80;;;;;;;;;;5060476;28;20084;-40
2023/01/05 00:58:30;;;;;;;4.00;2.20;;;;;;;;;;5059002;28;20048;-41
2023/01/05 01:00:56;;;;;;;6.90;3.13;;;;;;;;;;5059881;28;20093;-40
2023/01/05 01:03:22;;;;;;;6.65;2.92;;;;;;;;;;5057424;28;20053;-40
2023/01/05 01:05:58;;;;;;;6.43;2.90;;;;;;;;;;5056959;28;20029;-42
2023/01/05 01:08:24;;;;;;;6.15;3.15;;;;;;;;;;5057231;28;20036;-38
2023/01/05 01:10:50;;;;;;;4.82;3.53;;;;;;;;;;5058635;28;20041;-40
2023/01/05 01:13:16;;;;;;;8.75;3.33;;;;;;;;;;5058113;28;20111;-40
2023/01/05 01:15:42;;;;;;;6.72;3.45;;;;;;;;;;5059671;28;20017;-37
2023/01/05 01:18:08;;;;;;;5.60;2.60;;;;;;;;;;5059131;28;20052;-38
2023/01/05 01:20:36;;;;;;;3.90;2.83;;;;;;;;;;5059893;28;20489;-41
2023/01/05 01:23:03;;;;;;;5.53;2.72;;;;;;;;;;5059148;28;20033;-39
2023/01/05 01:25:29;;;;;;;7.80;3.42;;;;;;;;;;5058148;28;20172;-39
2023/01/05 01:27:55;;;;;;;6.53;2.85;;;;;;;;;;5057969;28;20084;-39
2023/01/05 01:30:21;;;;;;;5.57;3.13;;;;;;;;;;5057866;28;20510;-38
2023/01/05 01:32:47;;;;;;;6.13;3.58;;;;;;;;;;5058714;28;20098;-40
2023/01/05 01:35:13;;;;;;;7.22;3.45;;;;;;;;;;5060195;28;20029;-40
2023/01/05 01:37:39;;;;;;;8.52;2.50;;;;;;;;;;5059052;28;20079;-41
2023/01/05 01:40:06;;;;;;;4.97;3.22;;;;;;;;;;5058824;28;20049;-41
2023/01/05 01:42:32;;;;;;;7.85;2.58;;;;;;;;;;5058308;28;20025;-40
2023/01/05 01:45:05;;;;;;;7.80;2.88;;;;;;;;;;5057292;28;20036;-39
2023/01/05 01:47:31;;;;;;;7.03;3.17;;;;;;;;;;5056048;28;20025;-40
2023/01/05 01:49:59;;;;;;;6.60;3.10;;;;;;;;;;5056915;28;20114;-41
2023/01/05 01:52:27;;;;;;;4.30;2.75;;;;;;;;;;5058363;28;20107;-38
2023/01/05 01:54:53;;;;;;;6.93;2.75;;;;;;;;;;5058941;28;20075;-38
2023/01/05 01:57:20;;;;;;;8.73;3.03;;;;;;;;;;5059702;28;20040;-38
2023/01/05 01:59:46;;;;;;;5.90;3.00;;;;;;;;;;5060458;28;20052;-40
2023/01/05 02:02:12;;;;;;;6.38;2.83;;;;;;;;;;5058218;28;20636;-40
2023/01/05 02:04:39;;;;;;;7.18;2.58;;;;;;;;;;5057524;28;20088;-40
2023/01/05 02:07:07;;;;;;;13.55;3.20;;;;;;;;;;5057914;28;20028;-40
2023/01/05 02:09:33;;;;;;;;;;;;;;;;;;5058825;28;20017;-40
2023/01/05 02:12:11;;;;;;;10.38;3.20;;;;;;;;;;5058046;28;19905;-38
2023/01/05 02:14:57;;;;;;;7.82;3.00;;;;;;;;;;5060587;28;20496;-39
2023/01/05 02:17:29;;;;;;;7.15;2.97;;;;;;;;;;5062583;28;20508;-40
2023/01/05 02:20:23;;;;;;;4.35;2.97;;;;;;;;;;5061663;28;20061;-39
2023/01/05 02:22:49;;;;;;;6.75;3.30;;;;;;;;;;5059481;28;20060;-39
2023/01/05 02:25:15;;;;;;;5.03;2.70;;;;;;;;;;5060465;28;20382;-37
2023/01/05 02:27:44;;;;;;;5.72;2.78;;;;;;;;;;5059416;28;20048;-39
2023/01/05 02:30:16;;;;;;;6.35;3.58;;;;;;;;;;5060733;28;20044;-39
2023/01/05 02:32:46;;;;;;;4.60;2.78;;;;;;;;;;5062074;28;20108;-40
2023/01/05 02:35:16;;;;;;;5.32;2.70;;;;;;;;;;5062510;28;20100;-39
2023/01/05 02:37:45;;;;;;;3.97;2.40;;;;;;;;;;5062366;28;20028;-38
2023/01/05 02:40:19;;;;;;;6.80;3.28;;;;;;;;;;5062152;28;20028;-40
2023/01/05 02:42:46;;;;;;;3.20;2.60;;;;;;;;;;5060864;28;20025;-39
2023/01/05 02:45:15;;;;;;;5.60;2.70;;;;;;;;;;5058930;28;20029;-37
2023/01/05 02:47:42;;;;;;;5.22;2.40;;;;;;;;;;5058440;28;20033;-38
2023/01/05 02:50:16;;;;;;;5.13;2.90;;;;;;;;;;5060480;28;20049;-40
2023/01/05 02:52:49;;;;;;;3.65;2.30;;;;;;;;;;5060314;28;20805;-39
2023/01/05 02:55:17;;;;;;;4.88;2.97;;;;;;;;;;5060603;28;20021;-41
2023/01/05 02:57:47;;;;;;;7.25;3.13;;;;;;;;;;5060525;28;20412;-40
2023/01/05 03:00:33;;;;;;;6.47;3.13;;;;;;;;;;5032687;22;20465;-35
2023/01/05 03:03:06;;;;;;;4.25;2.85;;;;;;;;;;4993754;28;20035;-34
2023/01/05 03:05:35;;;;;;;5.90;2.28;;;;;;;;;;4995310;28;20382;-38
2023/01/05 03:08:09;;;;;;;8.98;2.92;;;;;;;;;;4994805;28;20112;-34
2023/01/05 03:13:41;;;;;;;;;;;;;;;;;;4995378;28;20042;-36
2023/01/05 03:16:08;;;;;;;6.57;2.80;;;;;;;;;;4994818;28;20404;-38
2023/01/05 03:19:34;;;;;;;3.17;2.50;;;;;;;;;;4994729;28;20034;-33
2023/01/05 03:21:25;;;;;;;8.23;3.00;;;;;;;;;;4994220;28;20487;-37
2023/01/05 03:37:52;;;;;;;4.72;2.42;;;;;;;;;;4994471;28;20041;-37
2023/01/05 03:40:21;;;;;;;5.22;2.50;;;;;;;;;;4994342;28;20505;-36
2023/01/05 03:42:47;;;;;;;8.32;3.15;;;;;;;;;;4994320;28;20069;-37
2023/01/05 03:45:14;;;;;;;5.50;3.08;;;;;;;;;;4994953;28;20029;-38
2023/01/05 03:47:40;;;;;;;5.63;2.38;;;;;;;;;;4994491;28;20062;-38
2023/01/05 03:50:07;;;;;;;3.03;2.50;;;;;;;;;;4994280;28;20065;-38
2023/01/05 03:52:33;;;;;;;5.85;2.78;;;;;;;;;;4992692;28;20023;-35
2023/01/05 03:54:59;;;;;;;8.85;2.63;;;;;;;;;;4994247;28;20029;-37
2023/01/05 03:57:25;;;;;;;6.80;2.50;;;;;;;;;;4994873;28;20034;-36
2023/01/05 03:59:51;;;;;;;3.75;2.42;;;;;;;;;;4995745;28;20491;-38
2023/01/05 04:02:17;;;;;;;2.83;2.10;;;;;;;;;;4996366;28;20029;-35
2023/01/05 04:04:43;;;;;;;2.58;2.35;;;;;;;;;;4995174;28;20486;-34
2023/01/05 04:07:09;;;;;;;4.22;2.20;;;;;;;;;;4993778;28;20054;-32
2023/01/05 04:09:35;;;;;;;3.40;1.83;;;;;;;;;;4993601;28;20034;-34
2023/01/05 04:12:01;;;;;;;6.63;2.75;;;;;;;;;;4993519;28;20057;-35
2023/01/05 04:14:27;;;;;;;6.60;2.30;;;;;;;;;;4993589;28;20479;-34
2023/01/05 04:16:53;;;;;;;5.55;2.10;;;;;;;;;;4993725;28;20019;-34
2023/01/05 04:19:19;;;;;;;7.43;2.70;;;;;;;;;;4992644;28;20041;-33
2023/01/05 04:21:45;;;;;;;4.97;1.88;;;;;;;;;;4993171;28;20112;-33
2023/01/05 04:24:11;;;;;;;3.17;2.33;;;;;;;;;;4993412;28;20026;-34
2023/01/05 04:26:38;;;;;;;5.63;2.35;;;;;;;;;;4993459;28;20026;-34
2023/01/05 04:29:04;;;;;;;4.78;2.30;;;;;;;;;;4993438;28;20545;-31
2023/01/05 04:31:30;;;;;;;8.90;2.85;;;;;;;;;;4993874;28;20396;-34
2023/01/05 04:33:56;;;;;;;5.47;1.83;;;;;;;;;;4993617;28;20018;-32
2023/01/05 04:36:22;;;;;;;5.18;2.40;;;;;;;;;;4993477;28;20104;-30
2023/01/05 04:38:48;;;;;;;5.93;2.85;;;;;;;;;;4995564;28;20037;-31
2023/01/05 04:41:14;;;;;;;5.65;2.88;;;;;;;;;;4997224;28;20044;-33
2023/01/05 04:43:40;;;;;;;3.53;2.03;;;;;;;;;;4997503;28;20101;-30
2023/01/05 04:46:07;;;;;;;3.45;2.25;;;;;;;;;;4997661;28;20099;-32
2023/01/05 04:48:33;;;;;;;6.43;2.55;;;;;;;;;;4995157;28;20030;-35
2023/01/05 04:50:59;;;;;;;4.78;2.28;;;;;;;;;;4993015;28;20023;-36
2023/01/05 04:53:25;;;;;;;11.90;2.28;;;;;;;;;;4992833;28;20489;-33
2023/01/05 04:55:51;;;;;;;5.00;2.30;;;;;;;;;;4991708;28;20030;-38
2023/01/05 04:58:18;;;;;;;8.75;3.38;;;;;;;;;;4993000;28;20038;-36
2023/01/05 05:00:44;;;;;;;4.82;2.40;;;;;;;;;;4993034;28;20379;-33
2023/01/05 05:03:10;;;;;;;4.82;2.42;;;;;;;;;;4992779;28;20037;-37
2023/01/05 05:05:36;;;;;;;3.42;2.10;;;;;;;;;;4992757;28;20030;-30
2023/01/05 05:08:02;;;;;;;8.57;2.50;;;;;;;;;;4992831;28;20022;-32
2023/01/05 05:10:28;;;;;;;4.78;2.33;;;;;;;;;;4992770;28;20371;-35
2023/01/05 05:12:54;;;;;;;3.55;2.15;;;;;;;;;;4992625;28;20069;-35
2023/01/05 05:15:20;;;;;;;3.40;2.17;;;;;;;;;;4992759;28;20391;-37
2023/01/05 05:17:47;;;;;;;3.10;1.95;;;;;;;;;;4992912;28;20105;-35
2023/01/05 05:20:13;;;;;;;3.08;1.88;;;;;;;;;;4992460;28;20375;-37
2023/01/05 05:22:39;;;;;;;4.57;1.90;;;;;;;;;;4992544;28;20089;-34
2023/01/05 05:25:05;;;;;;;4.07;2.22;;;;;;;;;;4992557;28;20042;-33
2023/01/05 05:27:31;;;;;;;2.88;1.80;;;;;;;;;;4992909;28;20390;-35
2023/01/05 05:29:57;;;;;;;5.78;2.42;;;;;;;;;;4992417;28;20022;-33
2023/01/05 05:32:23;;;;;;;4.93;2.17;;;;;;;;;;4992432;28;20156;-33
2023/01/05 05:34:49;;;;;;;3.88;1.63;;;;;;;;;;4992382;28;20015;-36
2023/01/05 05:37:15;;;;;;;5.35;1.65;;;;;;;;;;4992530;28;20053;-39
2023/01/05 05:39:41;;;;;;;5.35;2.05;;;;;;;;;;4992443;28;20057;-36
2023/01/05 05:42:07;;;;;;;5.80;2.13;;;;;;;;;;4992121;28;20035;-36
2023/01/05 05:44:33;;;;;;;3.80;1.90;;;;;;;;;;4992464;28;20092;-35
2023/01/05 05:46:59;;;;;;;5.78;2.35;;;;;;;;;;4992395;28;20106;-36
2023/01/05 05:49:25;;;;;;;3.13;2.05;;;;;;;;;;4993155;28;20061;-36
2023/01/05 05:51:51;;;;;;;3.70;1.35;;;;;;;;;;4996169;28;20057;-36
2023/01/05 05:54:17;;;;;;;8.93;2.53;;;;;;;;;;4996293;28;20018;-36
2023/01/05 05:56:43;;;;;;;4.97;1.95;;;;;;;;;;4996490;28;20105;-35
2023/01/05 05:59:09;;;;;;;5.60;2.20;;;;;;;;;;4996062;28;20210;-35
2023/01/05 06:01:35;;;;;;;4.25;2.17;;;;;;;;;;4996074;28;20030;-35
2023/01/05 06:04:01;;;;;;;4.22;1.80;;;;;;;;;;4996062;28;20399;-38
2023/01/05 06:06:27;;;;;;;12.50;2.38;;;;;;;;;;4996063;28;20088;-36
2023/01/05 06:08:53;;;;;;;6.72;2.35;;;;;;;;;;4995941;28;20031;-32
2023/01/05 06:11:19;;;;;;;4.30;1.92;;;;;;;;;;4995746;28;20023;-32
2023/01/05 06:13:45;;;;;;;6.90;2.20;;;;;;;;;;4993290;28;20029;-35
2023/01/05 06:16:11;;;;;;;8.13;2.13;;;;;;;;;;4995774;28;20471;-33
2023/01/05 06:18:37;;;;;;;10.38;1.83;;;;;;;;;;4994649;28;20033;-35
2023/01/05 06:21:03;;;;;;;0.52;0.52;;;;;;;;;;4993880;28;20018;-36
2023/01/05 06:23:29;;;;;;;3.45;0.65;;;;;;;;;;4975897;28;20459;-37
2023/01/05 06:25:55;;;;;;;15.48;1.02;;;;;;;;;;4980149;28;20431;-34
2023/01/05 06:28:21;;;;;;;23.65;1.92;;;;;;;;;;4995518;28;20030;-35
2023/01/05 06:30:47;;;;;;;33.47;2.22;;;;;;;;;;4994975;28;20440;-36
2023/01/05 06:33:13;;;;;;;11.07;2.65;;;;;;;;;;4993469;28;20117;-34
2023/01/05 06:35:39;;;;;;;12.50;2.25;;;;;;;;;;4995329;28;20050;-34
2023/01/05 06:38:05;;;;;;;12.90;1.42;;;;;;;;;;4993806;28;20496;-34
2023/01/05 06:40:31;;;;;;;26.73;1.70;;;;;;;;;;4994234;28;20018;-32
2023/01/05 06:42:57;;;;;;;18.15;2.30;;;;;;;;;;4994624;28;20470;-36
2023/01/05 06:45:23;;;;;;;12.27;2.10;;;;;;;;;;4994037;28;20073;-31
2023/01/05 06:47:49;;;;;;;11.55;2.08;;;;;;;;;;4994944;28;20022;-32
2023/01/05 06:50:15;;;;;;;11.48;1.80;;;;;;;;;;4995263;28;20524;-35
2023/01/05 06:52:41;;;;;;;16.33;1.98;;;;;;;;;;4995235;28;20019;-33
2023/01/05 06:55:08;;;;;;;13.07;1.88;;;;;;;;;;4995127;28;20146;-35
2023/01/05 06:57:35;;;;;;;13.15;1.95;;;;;;;;;;4995298;28;20026;-33
2023/01/05 07:00:01;;;;;;;44.03;4.47;;;;;;;;;;4994461;28;20088;-34
2023/01/05 07:02:27;;;;;;;24.85;3.72;;;;;;;;;;4994919;28;20029;-34
2023/01/05 07:04:53;;;;;;;19.00;2.15;;;;;;;;;;4995156;28;20030;-36
2023/01/05 07:07:19;;;;;;;62.22;4.03;;;;;;;;;;4994984;28;20070;-34
2023/01/05 07:09:48;;;;;;;26.20;2.88;;;;;;;;;;4995238;28;20026;-32
2023/01/05 07:12:14;;;;;;;18.35;2.67;;;;;;;;;;4994864;28;20026;-35
2023/01/05 07:14:40;;;;;;;25.90;2.90;;;;;;;;;;4994793;28;20521;-35
2023/01/05 07:17:06;;;;;;;16.05;2.35;;;;;;;;;;4994852;28;20026;-35
2023/01/05 07:19:32;;;;;;;22.88;3.03;;;;;;;;;;4992114;28;20426;-35
2023/01/05 07:21:58;;;;;;;14.85;2.10;;;;;;;;;;4994563;28;20022;-33
2023/01/05 07:24:24;;;;;;;18.88;1.85;;;;;;;;;;4994854;28;20509;-31
2023/01/05 07:26:50;;;;;;;11.15;2.50;;;;;;;;;;4994725;28;20042;-34
2023/01/05 07:29:16;;;;;;;18.83;1.85;;;;;;;;;;4994979;28;20454;-33
2023/01/05 07:31:42;;;;;;;22.20;2.38;;;;;;;;;;4996632;28;20035;-36
2023/01/05 07:34:09;;;;;;;27.58;2.95;;;;;;;;;;4996829;28;20398;-36
2023/01/05 07:36:35;;;;;;;19.95;2.60;;;;;;;;;;4996093;28;20030;-34
2023/01/05 07:39:01;;;;;;;22.83;2.70;;;;;;;;;;4994786;28;20034;-36
2023/01/05 07:41:27;;;;;;;41.53;3.53;;;;;;;;;;4994276;28;20395;-37
2023/01/05 07:43:53;;;;;;;30.88;2.90;;;;;;;;;;4994542;28;20097;-33
2023/01/05 07:46:19;;;;;;;32.30;3.35;;;;;;;;;;4994339;28;20030;-31
2023/01/05 07:48:45;;;;;;;23.27;3.60;;;;;;;;;;4994028;28;20037;-33
2023/01/05 07:51:11;;;;;;;21.95;3.03;;;;;;;;;;4994094;28;20018;-33
2023/01/05 07:53:38;;;;;;;25.45;2.42;;;;;;;;;;4993655;28;20149;-34
2023/01/05 07:56:04;;;;;;;11.27;1.95;;;;;;;;;;4994304;28;20018;-36
2023/01/05 07:58:31;;;;;;;7.65;1.95;;;;;;;;;;4993881;28;20030;-36
2023/01/05 08:01:01;;;;;;;19.17;2.70;;;;;;;;;;4994231;28;20100;-33
2023/01/05 08:03:27;;;;;;;12.95;2.03;;;;;;;;;;4993793;28;20084;-35
2023/01/05 08:05:53;;;;;;;17.75;1.90;;;;;;;;;;4994092;28;20427;-37
2023/01/05 08:08:19;;;;;;;8.05;1.50;;;;;;;;;;4993783;28;20019;-34
2023/01/05 08:10:45;;;;;;;16.35;2.33;;;;;;;;;;4993633;28;20023;-36
2023/01/05 08:15:57;;;;;;;13.43;1.90;;;;;;;;;;4993833;28;20096;-36
2023/01/05 08:18:23;;;;;;;26.25;2.58;;;;;;;;;;4992435;28;20026;-37
2023/01/05 08:20:50;;;;;;;10.38;1.83;;;;;;;;;;4993764;28;20038;-36
2023/01/05 08:23:16;;;;;;;11.82;2.00;;;;;;;;;;4993649;28;20026;-33
2023/01/05 08:25:42;;;;;;;6.75;1.88;;;;;;;;;;4993850;28;20034;-36
2023/01/05 08:28:08;;;;;;;16.35;2.78;;;;;;;;;;4993624;28;20112;-37
2023/01/05 08:30:34;;;;;;;13.18;1.95;;;;;;;;;;4993606;28;20023;-33
2023/01/05 08:33:00;;;;;;;12.50;1.90;;;;;;;;;;4993406;28;20534;-37
2023/01/05 08:35:26;;;;;;;16.02;2.17;;;;;;;;;;4993410;28;20019;-36
2023/01/05 08:37:52;;;;;;;13.98;2.15;;;;;;;;;;4993335;28;20026;-37
2023/01/05 08:40:18;;;;;;;19.70;2.63;;;;;;;;;;4993179;28;20030;-35
2023/01/05 08:42:47;;;;;;;4.00;1.73;;;;;;;;;;4993034;28;20160;-32
2023/01/05 08:45:13;;;;;;;10.77;1.75;;;;;;;;;;4993128;28;20445;-33
2023/01/05 08:47:39;;;;;;;13.95;2.10;;;;;;;;;;4993048;28;20089;-37
2023/01/05 08:50:06;;;;;;;17.00;2.05;;;;;;;;;;4993043;28;20053;-35
2023/01/05 08:52:32;;;;;;;4.05;1.40;;;;;;;;;;4991571;28;20088;-35
2023/01/05 08:54:58;;;;;;;12.30;2.25;;;;;;;;;;4992946;28;20522;-34
2023/01/05 08:57:24;;;;;;;11.98;2.67;;;;;;;;;;4992592;28;20026;-35
2023/01/05 08:59:50;;;;;;;12.40;1.63;;;;;;;;;;5011811;23;20058;-37
2023/01/05 09:02:16;;;;;;;7.45;1.70;;;;;;;;;;4992107;28;20421;-36
2023/01/05 09:04:42;;;;;;;9.82;1.60;;;;;;;;;;4993047;28;20080;-36
2023/01/05 09:07:08;;;;;;;15.15;2.55;;;;;;;;;;4992683;28;20371;-38
2023/01/05 09:09:34;;;;;;;19.13;1.70;;;;;;;;;;4992314;28;20085;-36
2023/01/05 09:12:00;;;;;;;11.48;2.20;;;;;;;;;;4992235;28;20537;-37
2023/01/05 09:14:25;;;;;;;13.02;1.70;;;;;;;;;;4992577;28;20035;-35
2023/01/05 09:16:51;;;;;;;13.02;2.15;;;;;;;;;;4991064;28;20076;-36
2023/01/05 09:19:18;;;;;;;12.98;2.05;;;;;;;;;;4992514;28;20030;-36
2023/01/05 09:21:44;;;;;;;10.45;2.38;;;;;;;;;;4992177;28;20034;-34
2023/01/05 09:24:13;;;;;;;13.63;2.40;;;;;;;;;;4992087;28;20081;-33
2023/01/05 09:26:42;;;;;;;15.18;2.45;;;;;;;;;;4992356;28;20053;-34
2023/01/05 09:29:09;;;;;;;11.23;1.80;;;;;;;;;;4992436;28;20023;-34
2023/01/05 09:31:35;;;;;;;13.50;1.75;;;;;;;;;;4992180;28;20026;-34
2023/01/05 09:34:01;;;;;;;9.95;2.25;;;;;;;;;;4992363;28;20497;-34
2023/01/05 09:36:27;;;;;;;13.45;2.15;;;;;;;;;;4992234;28;20019;-34
2023/01/05 09:38:55;;;;;;;11.70;2.38;;;;;;;;;;4992109;28;20034;-34
2023/01/05 09:41:30;;;;;;;20.63;2.42;;;;;;;;;;4992426;28;20034;-33
2023/01/05 09:43:58;;;;;;;9.35;1.63;;;;;;;;;;4992322;28;20026;-33
2023/01/05 09:46:34;;;;;;;14.73;2.58;;;;;;;;;;4992315;28;20514;-35
2023/01/05 09:49:02;;;;;;;18.88;1.98;;;;;;;;;;4992206;28;20073;-34
2023/01/05 09:51:28;;;;;;;24.08;2.00;;;;;;;;;;4991855;28;20030;-35
2023/01/05 09:53:55;;;;;;;21.40;2.70;;;;;;;;;;4992321;28;20101;-34
2023/01/05 09:56:35;;;;;;;14.68;2.55;;;;;;;;;;4992213;28;20069;-35
2023/01/05 09:59:13;;;;;;;35.00;3.53;;;;;;;;;;4992043;28;20022;-35
2023/01/05 10:01:40;;;;;;;20.55;3.20;;;;;;;;;;4991698;28;20510;-35
2023/01/05 10:04:25;;;;;;;26.73;3.35;;;;;;;;;;4992025;28;20443;-35
2023/01/05 10:06:53;;;;;;;24.25;3.35;;;;;;;;;;4992383;28;20394;-35
2023/01/05 10:09:24;;;;;;;30.73;2.72;;;;;;;;;;4990433;28;20041;-35
2023/01/05 10:14:38;;;;;;;34.88;3.22;;;;;;;;;;4989410;28;20065;-35
2023/01/05 10:17:08;;;;;;;25.50;4.40;;;;;;;;;;4989968;28;20030;-35
2023/01/05 10:19:34;;;;;;;21.23;3.70;;;;;;;;;;4991440;28;20564;-35
2023/01/05 10:22:00;;;;;;;19.80;2.63;;;;;;;;;;4993939;28;20045;-35
2023/01/05 10:24:35;;;;;;;24.42;3.15;;;;;;;;;;4997619;28;20077;-35
2023/01/05 10:27:11;;;;;;;16.42;3.33;;;;;;;;;;4991422;28;20029;-35
2023/01/05 10:29:45;;;;;;;35.40;3.00;;;;;;;;;;4991578;28;20441;-35
2023/01/05 10:32:11;;;;;;;16.65;2.83;;;;;;;;;;4991400;28;20126;-35
2023/01/05 10:34:37;;;;;;;8.35;2.30;;;;;;;;;;4991719;28;20442;-35
2023/01/05 10:37:08;;;;;;;25.98;2.85;;;;;;;;;;4995121;28;20027;-36
2023/01/05 10:39:51;;;;;;;21.20;2.75;;;;;;;;;;4995079;28;20394;-36
2023/01/05 10:42:44;;;;;;;22.92;2.70;;;;;;;;;;4995098;28;20046;-37
2023/01/05 10:45:12;;;;;;;23.05;2.33;;;;;;;;;;4992100;28;20570;-36
2023/01/05 10:47:39;;;;;;;19.30;2.45;;;;;;;;;;4994987;28;20034;-35
2023/01/05 10:50:35;;;;;;;17.05;2.30;;;;;;;;;;4995387;28;20041;-35
2023/01/05 10:53:06;;;;;;;12.88;2.97;;;;;;;;;;4972973;28;20034;-35
2023/01/05 10:55:32;;;;;;;20.25;3.35;;;;;;;;;;4973411;28;20030;-36
2023/01/05 10:57:58;;;;;;;16.80;2.47;;;;;;;;;;4972742;28;20118;-34
2023/01/05 11:00:38;;;;;;;23.02;2.80;;;;;;;;;;4972583;28;20121;-34
2023/01/05 11:03:07;;;;;;;20.27;2.38;;;;;;;;;;4956753;28;20035;-34
2023/01/05 11:05:38;;;;;;;28.30;3.25;;;;;;;;;;4956752;28;20030;-34
2023/01/05 11:08:14;;;;;;;33.60;3.60;;;;;;;;;;4972769;28;20515;-34
2023/01/05 11:10:57;;;;;;;14.02;2.55;;;;;;;;;;4972432;28;20054;-38
2023/01/05 11:13:33;;;;;;;17.45;2.53;;;;;;;;;;4953222;28;20552;-37
2023/01/05 11:16:01;;;;;;;16.33;2.63;;;;;;;;;;4953420;28;20511;-37
2023/01/05 11:18:35;;;;;;;27.48;3.50;;;;;;;;;;4953485;29;20118;-35
2023/01/05 11:21:05;;;;;;;18.33;3.50;;;;;;;;;;4953342;28;20109;-37
2023/01/05 11:23:35;;;;;;;18.80;2.70;;;;;;;;;;4967825;28;20043;-36
2023/01/05 11:26:17;;;;;;;13.48;2.92;;;;;;;;;;4972639;28;20523;-36
2023/01/05 11:29:02;;;;;;;32.10;3.05;;;;;;;;;;4977264;28;20042;-36
2023/01/05 11:31:36;;;;;;;18.80;2.58;;;;;;;;;;4994240;28;20029;-36
2023/01/05 11:34:11;;;;;;;38.35;3.47;;;;;;;;;;4994304;28;20034;-36
2023/01/05 11:36:37;;;;;;;31.13;3.63;;;;;;;;;;4993125;28;20078;-35
2023/01/05 11:39:04;;;;;;;28.90;3.67;;;;;;;;;;4992855;28;20035;-36
2023/01/05 11:41:29;;;;;;;26.25;3.72;;;;;;;;;;4993952;28;20049;-36
2023/01/05 11:43:59;;;;;;;38.67;5.65;;;;;;;;;;4994156;28;20834;-36
2023/01/05 11:46:26;;;;;;;29.10;3.20;;;;;;;;;;4992747;28;20034;-36
2023/01/05 11:48:54;;;;;;;43.13;3.40;;;;;;;;;;4994237;28;20034;-36
2023/01/05 11:51:37;;;;;;;28.00;3.88;;;;;;;;;;4992931;28;20061;-36
2023/01/05 11:54:03;;;;;;;13.40;2.53;;;;;;;;;;4993930;28;20026;-37
2023/01/05 11:56:29;;;;;;;18.00;2.58;;;;;;;;;;4994139;28;20073;-38
2023/01/05 11:58:59;;;;;;;14.95;2.85;;;;;;;;;;4992603;28;20414;-36
2023/01/05 12:01:45;;;;;;;22.95;2.95;;;;;;;;;;4993512;28;20042;-38
2023/01/05 12:04:22;;;;;;;27.90;3.58;;;;;;;;;;4982827;28;20037;-38
2023/01/05 12:06:48;;;;;;;18.85;2.72;;;;;;;;;;4993752;28;20486;-36
2023/01/05 12:09:23;;;;;;;14.40;3.35;;;;;;;;;;4993971;28;20050;-35
2023/01/05 12:11:56;;;;;;;17.92;3.10;;;;;;;;;;4993375;28;20026;-37
2023/01/05 12:14:51;;;;;;;23.25;3.88;;;;;;;;;;4993552;28;20034;-36
2023/01/05 12:17:21;;;;;;;20.02;3.47;;;;;;;;;;4988640;28;20034;-36
2023/01/05 12:19:47;;;;;;;24.88;4.03;;;;;;;;;;4993128;28;20479;-37
2023/01/05 12:22:52;;;;;;;15.00;3.35;;;;;;;;;;4993258;28;20036;-37
2023/01/05 12:25:33;;;;;;;20.50;4.10;;;;;;;;;;4972776;28;20037;-37
2023/01/05 12:28:18;;;;;;;18.52;3.58;;;;;;;;;;4971671;28;20090;-36
2023/01/05 12:30:46;;;;;;;17.77;4.28;;;;;;;;;;4973199;28;20102;-37
2023/01/05 12:33:31;;;;;;;26.38;5.13;;;;;;;;;;4972187;28;20027;-38
2023/01/05 12:36:15;;;;;;;22.70;4.88;;;;;;;;;;4971706;28;20126;-38
2023/01/05 12:38:41;;;;;;;15.02;3.28;;;;;;;;;;4971834;28;20035;-37
2023/01/05 12:41:27;;;;;;;21.23;3.70;;;;;;;;;;4971463;28;20030;-38
2023/01/05 12:44:05;;;;;;;18.58;5.18;;;;;;;;;;4942818;28;20183;-37
2023/01/05 12:46:34;;;;;;;23.33;4.95;;;;;;;;;;4971156;28;20026;-38
2023/01/05 12:49:02;;;;;;;19.13;4.40;;;;;;;;;;4971028;28;20078;-38
2023/01/05 12:51:33;;;;;;;27.80;4.07;;;;;;;;;;4970948;28;20031;-38
2023/01/05 12:54:20;;;;;;;20.25;4.60;;;;;;;;;;4971101;28;20568;-37
2023/01/05 12:56:46;;;;;;;23.13;4.50;;;;;;;;;;4963055;28;20027;-38
2023/01/05 12:59:33;;;;;;;26.50;4.45;;;;;;;;;;4972995;28;20475;-36
2023/01/05 13:02:14;;;;;;;20.85;3.67;;;;;;;;;;4972933;28;20624;-38
2023/01/05 13:04:50;;;;;;;19.85;3.83;;;;;;;;;;4973462;28;20125;-38
2023/01/05 13:07:21;;;;;;;19.95;3.97;;;;;;;;;;4972172;28;20057;-39
2023/01/05 13:09:52;;;;;;;21.60;3.88;;;;;;;;;;4973331;28;20054;-38
2023/01/05 13:12:18;;;;;;;22.30;3.38;;;;;;;;;;4972842;28;20027;-39
2023/01/05 13:14:51;;;;;;;20.88;3.85;;;;;;;;;;4973581;28;20126;-39
2023/01/05 13:17:25;;;;;;;27.55;4.00;;;;;;;;;;4971870;28;20434;-37
2023/01/05 13:20:00;;;;;;;13.55;3.08;;;;;;;;;;4973186;28;20038;-38
2023/01/05 13:22:28;;;;;;;15.75;3.60;;;;;;;;;;4971554;28;20026;-38
2023/01/05 13:25:00;;;;;;;19.48;3.30;;;;;;;;;;4972961;28;20035;-39
2023/01/05 13:27:28;;;;;;;21.05;3.38;;;;;;;;;;4984211;28;20391;-37
2023/01/05 13:29:58;;;;;;;34.70;5.03;;;;;;;;;;4992105;28;20045;-37
2023/01/05 13:32:24;;;;;;;30.23;4.80;;;;;;;;;;4992171;28;20076;-45
2023/01/05 13:34:56;;;;;;;26.45;4.63;;;;;;;;;;4992370;28;20041;-45
2023/01/05 13:37:43;;;;;;;31.75;5.28;;;;;;;;;;4992208;28;20111;-44
2023/01/05 13:40:09;;;;;;;20.20;3.58;;;;;;;;;;4992155;28;20109;-44
2023/01/05 13:42:38;;;;;;;22.02;3.90;;;;;;;;;;4990530;28;20026;-45
2023/01/05 13:45:07;;;;;;;30.60;4.28;;;;;;;;;;4992066;28;20483;-44
2023/01/05 13:47:33;;;;;;;28.15;3.88;;;;;;;;;;4990351;28;20034;-45
2023/01/05 13:50:05;;;;;;;16.23;4.85;;;;;;;;;;4991212;28;20029;-44
2023/01/05 13:52:41;;;;;;;31.77;4.55;;;;;;;;;;4987131;28;20048;-45
2023/01/05 13:55:11;;;;;;;25.63;4.30;;;;;;;;;;4991922;28;20026;-43
2023/01/05 13:57:38;;;;;;;30.40;5.07;;;;;;;;;;4992049;28;20446;-45
2023/01/05 14:00:20;;;;;;;25.00;3.70;;;;;;;;;;4991832;28;20526;-45
2023/01/05 14:02:53;;;;;;;30.20;4.97;;;;;;;;;;4991686;28;20187;-44
2023/01/05 14:05:29;;;;;;;26.77;4.20;;;;;;;;;;4979172;28;20161;-44
2023/01/05 14:07:56;;;;;;;38.13;4.40;;;;;;;;;;4981814;28;20030;-44
2023/01/05 14:10:25;;;;;;;36.85;5.22;;;;;;;;;;4992409;28;20391;-43
2023/01/05 14:12:53;;;;;;;45.35;4.60;;;;;;;;;;4995467;28;20019;-43
2023/01/05 14:15:48;;;;;;;55.80;6.82;;;;;;;;;;4993799;28;20486;-44
2023/01/05 14:18:33;;;;;;;39.85;5.38;;;;;;;;;;4988960;28;20514;-44
2023/01/05 14:21:09;;;;;;;31.77;4.57;;;;;;;;;;4993140;28;20022;-44
2023/01/05 14:23:35;;;;;;;54.45;5.32;;;;;;;;;;4995246;28;20088;-45
2023/01/05 14:26:05;;;;;;;40.25;5.57;;;;;;;;;;4995443;28;20117;-44
2023/01/05 14:28:37;;;;;;;40.45;5.95;;;;;;;;;;4975833;28;20026;-45
2023/01/05 14:31:15;;;;;;;52.83;6.93;;;;;;;;;;4975834;28;20023;-44
2023/01/05 14:34:00;;;;;;;60.25;7.07;;;;;;;;;;4974563;28;20034;-44
2023/01/05 14:36:29;;;;;;;36.78;5.63;;;;;;;;;;4975929;28;20047;-43
2023/01/05 14:38:56;;;;;;;43.88;6.00;;;;;;;;;;4975740;28;20027;-44
2023/01/05 14:41:23;;;;;;;35.10;5.32;;;;;;;;;;4975890;28;20022;-43
2023/01/05 14:43:56;;;;;;;35.80;5.65;;;;;;;;;;4975927;28;20037;-45
2023/01/05 14:46:23;;;;;;;41.60;5.22;;;;;;;;;;4976180;28;20022;-43
2023/01/05 14:49:00;;;;;;;34.10;4.37;;;;;;;;;;4975549;28;20042;-42
2023/01/05 14:51:28;;;;;;;23.40;4.13;;;;;;;;;;4975440;28;20481;-43
2023/01/05 14:53:56;;;;;;;39.92;5.85;;;;;;;;;;4975697;28;20105;-43
2023/01/05 14:56:24;;;;;;;36.38;4.90;;;;;;;;;;4975575;28;20154;-42
2023/01/05 14:58:49;;;;;;;;;;;;;;;;;;4975923;28;20038;-42
2023/01/05 15:01:15;;;;;;;18.10;5.10;;;;;;;;;;4981413;28;19917;-42
2023/01/05 15:03:44;;;;;;;8.68;2.83;;;;;;;;;;4994727;28;20022;-42
2023/01/05 15:06:29;;;;;;;8.23;2.13;;;;;;;;;;4994648;28;20057;-42
2023/01/05 15:09:07;;;;;;;13.70;3.20;;;;;;;;;;4994065;28;20070;-43
2023/01/05 15:11:33;;;;;;;24.55;4.05;;;;;;;;;;4994524;28;20022;-42
2023/01/05 15:14:36;;;;;;;14.10;2.72;;;;;;;;;;4994670;28;20105;-43
2023/01/05 15:17:11;;;;;;;33.00;3.92;;;;;;;;;;4994784;28;20434;-43
2023/01/05 15:19:46;;;;;;;29.00;4.05;;;;;;;;;;4994555;28;20029;-42
2023/01/05 15:22:24;;;;;;;16.08;3.10;;;;;;;;;;4994106;28;20034;-43
2023/01/05 15:25:11;;;;;;;26.45;4.28;;;;;;;;;;4994431;28;20090;-43